Londonderry, United Kingdom
Current Conditions -  °F | °C
As of 1:50 PM on Friday 24 Oct 2014 (Local Time) from EGAE Reporting Station
Broken Clouds Broken Clouds  
Wind Chill: 54°   Ceiling: 3800
Heat Index: 54°   Visibility: 6mi
Dew Point: 45°   Wind: 24mph
Humidity: 72%   Direction: 230°SW
Pressure: 29.71"   Gusts: NA
Location:  54.99°N, 7.31°W
Report Text: EGAE 241250Z 23021KT 9999 FEW024 BKN038 12/07 Q1006
Loading
Personal Weather Stations






























Interactive Weather Map
Tropical Storm Tracking
New forecast layout! Learn more

10-Day Weather Forecast

Advertisements
Track Severe Weather on mobile